Time;durP1;ratioP1;P1;durP2;ratioP2;P2;SDS_P1;SDS_P2;PMS_P1;PMS_P2;Temp;Humidity;BMP_temperature;BMP_pressure;BME280_temperature;BME280_humidity;BME280_pressure;Samples;Min_cycle;Max_cycle;Signal;HPM_P1;HPM_P2
2021/04/08 00:00:20;;;;;;;17.10;6.50;;;-0.10;99.90;;;;;;5061120;28;20033;-66
2021/04/08 00:02:46;;;;;;;11.07;5.85;;;-0.10;99.90;;;;;;5061505;28;20128;-65
2021/04/08 00:05:14;;;;;;;34.03;6.70;;;0.00;99.90;;;;;;5061969;28;20170;-65
2021/04/08 00:07:40;;;;;;;13.15;6.10;;;0.00;99.90;;;;;;5061309;28;20811;-66
2021/04/08 00:10:07;;;;;;;15.52;6.55;;;0.00;99.90;;;;;;5062164;28;20812;-66
2021/04/08 00:12:33;;;;;;;17.27;6.10;;;0.00;99.90;;;;;;5061704;28;20556;-65
2021/04/08 00:14:59;;;;;;;15.10;5.93;;;0.00;99.90;;;;;;5053698;28;20048;-65
2021/04/08 00:17:24;;;;;;;15.95;5.57;;;0.00;99.90;;;;;;5047863;28;20540;-64
2021/04/08 00:19:50;;;;;;;21.95;6.63;;;0.00;99.90;;;;;;5048537;28;20037;-65
2021/04/08 00:22:16;;;;;;;14.43;5.68;;;0.00;99.90;;;;;;5046944;28;20045;-66
2021/04/08 00:24:41;;;;;;;17.35;5.97;;;0.00;99.90;;;;;;5048752;28;20090;-64
2021/04/08 00:27:07;;;;;;;15.90;6.95;;;0.00;99.90;;;;;;5040734;28;20171;-66
2021/04/08 00:29:33;;;;;;;20.08;6.18;;;0.00;99.90;;;;;;5047822;28;20095;-66
2021/04/08 00:31:59;;;;;;;15.43;6.45;;;0.10;99.90;;;;;;5062283;28;20067;-66
2021/04/08 00:34:24;;;;;;;13.65;6.07;;;0.00;99.90;;;;;;5068950;28;20048;-64
2021/04/08 00:36:50;;;;;;;17.08;6.18;;;0.10;99.90;;;;;;5066644;28;20663;-65
2021/04/08 00:39:15;;;;;;;21.58;7.03;;;0.00;99.90;;;;;;5067913;28;20131;-67
2021/04/08 00:41:42;;;;;;;26.65;6.78;;;0.00;99.90;;;;;;5067699;28;20159;-67
2021/04/08 00:44:07;;;;;;;18.52;5.75;;;0.00;99.90;;;;;;5067633;28;20085;-66
2021/04/08 00:46:33;;;;;;;16.08;6.82;;;0.00;99.90;;;;;;5055503;28;20037;-67
2021/04/08 00:48:59;;;;;;;16.33;6.07;;;0.10;99.90;;;;;;5048207;28;20040;-68
2021/04/08 00:51:25;;;;;;;28.08;6.65;;;0.10;99.90;;;;;;5042354;28;20072;-65
2021/04/08 00:53:52;;;;;;;15.88;7.00;;;0.20;99.90;;;;;;5039985;28;20037;-65
2021/04/08 00:56:17;;;;;;;12.25;5.40;;;0.20;99.90;;;;;;5037465;28;20037;-67
2021/04/08 00:58:43;;;;;;;15.32;6.55;;;0.20;99.90;;;;;;5041792;28;20044;-67
2021/04/08 01:01:11;;;;;;;12.80;6.30;;;0.20;99.90;;;;;;5045269;28;20037;-67
2021/04/08 01:03:37;;;;;;;19.92;5.40;;;0.20;99.90;;;;;;5046108;28;20037;-65
2021/04/08 01:06:03;;;;;;;24.10;6.28;;;0.10;99.90;;;;;;5046905;28;20048;-66
2021/04/08 01:08:29;;;;;;;18.92;6.97;;;0.00;99.90;;;;;;5047707;28;20048;-66
2021/04/08 01:10:54;;;;;;;13.18;5.05;;;0.00;99.90;;;;;;5047192;28;20036;-68
2021/04/08 01:13:22;;;;;;;16.27;5.32;;;0.10;99.90;;;;;;5047165;28;20331;-66
2021/04/08 01:15:48;;;;;;;19.63;7.25;;;0.10;99.90;;;;;;5047196;28;20103;-68
2021/04/08 01:18:51;;;;;;;15.57;5.82;;;0.10;99.90;;;;;;5047179;28;20044;-65
2021/04/08 01:21:26;;;;;;;17.02;6.82;;;0.10;99.90;;;;;;5046996;28;20479;-66
2021/04/08 01:24:16;;;;;;;18.48;5.28;;;0.10;99.90;;;;;;5047285;28;20084;-67
2021/04/08 01:27:19;;;;;;;12.77;6.38;;;0.00;99.90;;;;;;5046382;28;20037;-66
2021/04/08 01:29:58;;;;;;;17.48;5.70;;;0.00;99.90;;;;;;5046677;28;20029;-67
2021/04/08 01:32:26;;;;;;;12.52;5.60;;;0.00;99.90;;;;;;5046260;28;20111;-66
2021/04/08 01:34:55;;;;;;;18.35;7.00;;;-0.10;99.90;;;;;;5046660;28;20040;-66
2021/04/08 01:37:27;;;;;;;16.70;5.75;;;-0.10;99.90;;;;;;5046943;28;20103;-68
2021/04/08 01:39:55;;;;;;;19.90;6.10;;;-0.10;99.90;;;;;;5047355;28;20053;-67
2021/04/08 01:42:23;;;;;;;20.63;6.80;;;-0.20;99.90;;;;;;5046717;28;20079;-66
2021/04/08 01:44:51;;;;;;;25.98;7.07;;;-0.20;99.90;;;;;;5046791;28;20498;-66
2021/04/08 01:47:17;;;;;;;20.23;6.75;;;-0.10;99.90;;;;;;5045976;28;20033;-66
2021/04/08 01:49:43;;;;;;;19.27;7.07;;;-0.10;99.90;;;;;;5046592;28;20555;-66
2021/04/08 01:52:15;;;;;;;16.92;6.70;;;-0.10;99.90;;;;;;5046380;28;20032;-66
2021/04/08 01:54:44;;;;;;;17.10;5.90;;;-0.10;99.90;;;;;;5046765;28;20152;-66
2021/04/08 01:57:14;;;;;;;12.57;5.72;;;0.00;99.90;;;;;;5047118;28;20045;-66
2021/04/08 01:59:42;;;;;;;14.57;6.82;;;0.00;99.90;;;;;;5036800;28;20049;-66
2021/04/08 02:02:09;;;;;;;21.63;6.07;;;0.00;99.90;;;;;;5059034;28;20468;-66
2021/04/08 02:04:37;;;;;;;18.35;5.63;;;0.10;99.90;;;;;;5059270;28;20112;-66
2021/04/08 02:07:03;;;;;;;22.23;6.05;;;0.10;99.90;;;;;;5059637;28;20100;-66
2021/04/08 02:09:30;;;;;;;25.88;6.60;;;0.10;99.90;;;;;;5065292;28;20076;-66
2021/04/08 02:11:57;;;;;;;17.02;5.28;;;0.10;99.90;;;;;;5061581;28;20036;-64
2021/04/08 02:14:24;;;;;;;16.25;5.60;;;0.00;99.90;;;;;;5064909;28;20467;-66
2021/04/08 02:16:51;;;;;;;12.82;5.15;;;0.00;99.90;;;;;;5065209;28;20054;-66
2021/04/08 02:19:18;;;;;;;22.90;5.70;;;0.00;99.90;;;;;;5064990;28;20051;-66
2021/04/08 02:21:46;;;;;;;22.80;5.68;;;0.00;99.90;;;;;;5065890;28;20033;-66
2021/04/08 02:24:14;;;;;;;20.60;5.82;;;-0.10;99.90;;;;;;5066050;28;20127;-66
2021/04/08 02:26:41;;;;;;;21.17;4.82;;;-0.10;99.90;;;;;;5066787;28;20085;-66
2021/04/08 02:29:08;;;;;;;15.82;5.50;;;-0.10;99.90;;;;;;5064524;28;20758;-66
2021/04/08 02:31:36;;;;;;;21.17;5.13;;;-0.10;99.90;;;;;;5065700;28;20095;-66
2021/04/08 02:34:02;;;;;;;14.20;5.10;;;-0.10;99.90;;;;;;5066843;28;20071;-66
2021/04/08 02:36:28;;;;;;;17.55;5.43;;;-0.10;99.90;;;;;;5066275;28;20072;-66
2021/04/08 02:38:54;;;;;;;17.98;6.22;;;0.00;99.90;;;;;;5065535;28;20440;-66
2021/04/08 02:41:19;;;;;;;14.52;5.88;;;0.00;99.90;;;;;;5065653;28;20555;-66
2021/04/08 02:43:45;;;;;;;18.80;5.53;;;0.00;99.90;;;;;;5066568;28;20547;-66
2021/04/08 02:46:10;;;;;;;21.30;6.15;;;0.00;99.90;;;;;;5065302;28;20036;-66
2021/04/08 02:48:36;;;;;;;24.88;6.30;;;-0.10;99.90;;;;;;5065909;28;20040;-66
2021/04/08 02:51:07;;;;;;;22.55;7.75;;;0.00;99.90;;;;;;5063869;28;20120;-65
2021/04/08 02:53:40;;;;;;;21.70;6.45;;;-0.10;99.90;;;;;;5065822;28;20155;-66
2021/04/08 02:56:24;;;;;;;17.30;6.85;;;-0.20;99.90;;;;;;5065122;28;20063;-66
2021/04/08 02:58:53;;;;;;;20.73;5.85;;;-0.20;99.90;;;;;;5064999;28;20087;-65
2021/04/08 03:01:24;;;;;;;24.55;6.03;;;-0.20;99.90;;;;;;5064936;28;20381;-66
2021/04/08 03:03:56;;;;;;;16.75;6.22;;;-0.20;99.90;;;;;;5066289;28;20053;-66
2021/04/08 03:06:23;;;;;;;20.40;7.32;;;-0.10;99.90;;;;;;5065789;28;20123;-66
2021/04/08 03:08:52;;;;;;;18.38;5.63;;;-0.10;99.90;;;;;;5065372;28;20149;-66
2021/04/08 03:11:32;;;;;;;26.38;5.93;;;-0.10;99.90;;;;;;5065844;28;20135;-66
2021/04/08 03:14:00;;;;;;;18.45;6.57;;;0.00;99.90;;;;;;5045872;28;20507;-66
2021/04/08 03:16:34;;;;;;;15.90;5.05;;;0.00;99.90;;;;;;5044917;28;20570;-65
2021/04/08 03:19:02;;;;;;;20.83;5.78;;;0.00;99.90;;;;;;5045593;28;20049;-66
2021/04/08 03:21:27;;;;;;;18.13;5.38;;;0.00;99.90;;;;;;5043632;28;20065;-66
2021/04/08 03:23:55;;;;;;;22.27;5.80;;;0.00;99.90;;;;;;5045550;28;20591;-66
2021/04/08 03:26:22;;;;;;;16.95;5.10;;;0.00;99.90;;;;;;5057414;28;20032;-66
2021/04/08 03:28:50;;;;;;;14.48;5.00;;;0.00;99.90;;;;;;5066146;28;20387;-66
2021/04/08 03:31:16;;;;;;;19.52;5.20;;;0.10;99.90;;;;;;5064628;28;20687;-66
2021/04/08 03:33:43;;;;;;;21.52;6.35;;;0.10;99.90;;;;;;5065538;28;20044;-66
2021/04/08 03:36:09;;;;;;;16.98;5.50;;;0.00;99.90;;;;;;5066303;28;20054;-66
2021/04/08 03:38:35;;;;;;;12.05;4.38;;;-0.10;99.90;;;;;;5065046;28;20125;-66
2021/04/08 03:41:01;;;;;;;16.52;5.82;;;-0.10;99.90;;;;;;5065628;28;20343;-65
2021/04/08 03:43:27;;;;;;;18.23;5.55;;;-0.10;99.90;;;;;;5080621;28;20057;-66
2021/04/08 03:45:59;;;;;;;14.63;4.95;;;0.00;99.90;;;;;;5065062;28;20119;-66
2021/04/08 03:48:26;;;;;;;15.68;5.75;;;-0.10;99.90;;;;;;5065115;28;20568;-66
2021/04/08 03:50:53;;;;;;;21.60;5.30;;;0.00;99.90;;;;;;5068614;28;20080;-66
2021/04/08 03:53:20;;;;;;;13.75;4.93;;;0.00;99.90;;;;;;5069478;28;20419;-67
2021/04/08 03:55:46;;;;;;;18.55;5.25;;;0.00;99.90;;;;;;5097125;28;20049;-66
2021/04/08 03:58:12;;;;;;;15.45;5.40;;;0.00;99.90;;;;;;5069574;28;20033;-66
2021/04/08 04:00:38;;;;;;;22.75;6.07;;;0.00;99.90;;;;;;5068545;28;20040;-66
2021/04/08 04:03:09;;;;;;;14.65;4.47;;;-0.10;99.90;;;;;;5068931;28;20032;-66
2021/04/08 04:05:35;;;;;;;18.42;5.25;;;0.00;99.90;;;;;;5068189;28;20102;-66
2021/04/08 04:08:01;;;;;;;16.83;5.28;;;0.00;99.90;;;;;;5068311;28;20488;-66
2021/04/08 04:10:27;;;;;;;17.42;5.28;;;0.00;99.90;;;;;;5069784;28;20045;-66
2021/04/08 04:12:55;;;;;;;20.25;5.28;;;0.00;99.90;;;;;;5066815;28;20037;-66
2021/04/08 04:15:21;;;;;;;22.75;5.55;;;-0.10;99.90;;;;;;5068005;28;20044;-66
2021/04/08 04:17:48;;;;;;;19.63;5.25;;;-0.10;99.90;;;;;;5069806;28;20044;-64
2021/04/08 04:20:17;;;;;;;19.27;5.13;;;-0.10;99.90;;;;;;5068204;28;20189;-65
2021/04/08 04:22:43;;;;;;;26.75;6.25;;;0.00;99.90;;;;;;5069591;28;20045;-66
2021/04/08 04:25:11;;;;;;;14.95;5.47;;;-0.10;99.90;;;;;;5068679;28;20119;-64
2021/04/08 04:27:37;;;;;;;20.67;5.93;;;-0.10;99.90;;;;;;5069693;28;20407;-64
2021/04/08 04:30:05;;;;;;;16.48;5.78;;;-0.10;99.90;;;;;;5069365;28;20041;-65
2021/04/08 04:32:31;;;;;;;13.60;4.63;;;-0.10;99.90;;;;;;5068611;28;20610;-65
2021/04/08 04:34:56;;;;;;;17.30;4.90;;;-0.10;99.90;;;;;;5068806;28;20044;-64
2021/04/08 04:37:22;;;;;;;14.60;5.28;;;-0.10;99.90;;;;;;5068030;28;20417;-64
2021/04/08 04:39:48;;;;;;;15.82;5.25;;;0.00;99.90;;;;;;5069104;28;20561;-63
2021/04/08 04:42:14;;;;;;;16.92;6.05;;;0.00;99.90;;;;;;5067088;28;20060;-63
2021/04/08 04:44:40;;;;;;;25.92;5.85;;;0.00;99.90;;;;;;5069136;28;20094;-65
2021/04/08 04:47:06;;;;;;;14.35;4.95;;;-0.10;99.90;;;;;;5068345;28;20071;-64
2021/04/08 04:49:32;;;;;;;14.77;6.07;;;-0.10;99.90;;;;;;5060210;28;20480;-61
2021/04/08 04:51:57;;;;;;;15.77;4.95;;;0.00;99.90;;;;;;5069104;28;20661;-65
2021/04/08 04:54:23;;;;;;;12.63;5.65;;;0.00;99.90;;;;;;5067850;28;20516;-65
2021/04/08 04:56:49;;;;;;;17.33;5.32;;;0.00;99.90;;;;;;5064310;28;20044;-64
2021/04/08 04:59:15;;;;;;;15.25;5.40;;;0.00;99.90;;;;;;5060474;28;20051;-64
2021/04/08 05:01:41;;;;;;;14.10;5.10;;;-0.10;99.90;;;;;;5067302;28;20072;-64
2021/04/08 05:04:07;;;;;;;9.90;4.05;;;0.00;99.90;;;;;;5068259;28;20115;-64
2021/04/08 05:06:33;;;;;;;14.80;5.78;;;0.00;99.90;;;;;;5067657;28;20036;-66
2021/04/08 05:08:58;;;;;;;16.65;5.05;;;-0.10;99.90;;;;;;5067579;28;20520;-66
2021/04/08 05:11:24;;;;;;;11.48;3.88;;;0.00;99.90;;;;;;5068003;28;20040;-66
2021/04/08 05:13:50;;;;;;;14.05;5.30;;;0.00;99.90;;;;;;5068589;28;20048;-66
2021/04/08 05:16:16;;;;;;;16.88;5.22;;;0.00;99.90;;;;;;5068319;28;20051;-65
2021/04/08 05:18:42;;;;;;;13.45;5.63;;;0.00;99.90;;;;;;5067744;28;20044;-65
2021/04/08 05:21:07;;;;;;;23.00;5.18;;;0.00;99.90;;;;;;5067555;28;20511;-65
2021/04/08 05:23:33;;;;;;;16.70;4.25;;;0.10;99.90;;;;;;5067495;28;20036;-67
2021/04/08 05:25:59;;;;;;;16.13;4.65;;;0.00;99.90;;;;;;5069302;28;20044;-64
2021/04/08 05:28:25;;;;;;;10.90;5.05;;;0.00;99.90;;;;;;5068082;28;20419;-66
2021/04/08 05:30:50;;;;;;;12.80;4.57;;;0.10;99.90;;;;;;5067377;28;20040;-67
2021/04/08 05:33:16;;;;;;;17.58;5.60;;;0.20;99.90;;;;;;5066645;28;20569;-66
2021/04/08 05:35:42;;;;;;;15.65;4.80;;;0.20;99.90;;;;;;5068018;28;20051;-67
2021/04/08 05:38:07;;;;;;;14.05;5.18;;;0.20;99.90;;;;;;5067222;22;20052;-73
2021/04/08 05:40:33;;;;;;;16.20;4.55;;;0.20;99.90;;;;;;5060630;28;20047;-75
2021/04/08 05:42:59;;;;;;;18.80;5.68;;;0.20;99.90;;;;;;5081652;28;20476;-75
2021/04/08 05:45:27;;;;;;;16.45;5.55;;;0.20;99.90;;;;;;5088046;28;20132;-73
2021/04/08 05:47:54;;;;;;;13.40;4.38;;;0.20;99.90;;;;;;5088468;28;20046;-72
2021/04/08 05:50:20;;;;;;;12.93;5.13;;;0.20;99.90;;;;;;5088432;28;20093;-75
2021/04/08 05:52:46;;;;;;;15.57;4.70;;;0.30;99.90;;;;;;5083948;28;20044;-75
2021/04/08 05:55:12;;;;;;;12.60;5.50;;;0.40;99.90;;;;;;5072945;28;20047;-73
2021/04/08 05:57:37;;;;;;;22.65;5.22;;;0.50;99.90;;;;;;5090410;28;20071;-74
2021/04/08 06:00:07;;;;;;;13.52;4.50;;;0.50;99.90;;;;;;5091290;28;20082;-74
2021/04/08 06:02:33;;;;;;;10.40;4.18;;;0.50;99.90;;;;;;5107987;28;20114;-75
2021/04/08 06:04:59;;;;;;;21.92;4.45;;;0.50;99.90;;;;;;5091448;28;20089;-73
2021/04/08 06:07:25;;;;;;;25.08;5.05;;;0.40;99.90;;;;;;5091277;28;20031;-76
2021/04/08 06:09:51;;;;;;;14.73;4.30;;;0.40;99.90;;;;;;5090160;28;20050;-75
2021/04/08 06:12:17;;;;;;;18.33;4.60;;;0.40;99.90;;;;;;5075837;28;20041;-72
2021/04/08 06:14:43;;;;;;;14.57;3.97;;;0.50;99.90;;;;;;5050893;28;20040;-73
2021/04/08 06:17:09;;;;;;;13.23;5.10;;;0.60;99.90;;;;;;5049988;28;20040;-74
2021/04/08 06:19:37;;;;;;;16.88;4.32;;;0.50;99.90;;;;;;5050235;28;20041;-74
2021/04/08 06:22:03;;;;;;;24.45;5.75;;;0.40;99.90;;;;;;5050421;28;20140;-76
2021/04/08 06:24:29;;;;;;;18.55;4.22;;;0.50;99.90;;;;;;5068302;28;20421;-72
2021/04/08 06:26:55;;;;;;;20.67;4.35;;;0.50;99.90;;;;;;5070086;28;20043;-73
2021/04/08 06:29:21;;;;;;;12.48;4.30;;;0.50;99.90;;;;;;5087112;28;20040;-73
2021/04/08 06:31:47;;;;;;;15.68;4.15;;;0.60;99.90;;;;;;5086588;28;20039;-73
2021/04/08 06:34:12;;;;;;;14.48;3.85;;;0.50;99.90;;;;;;5087244;28;20096;-72
2021/04/08 06:36:38;;;;;;;12.52;3.67;;;0.50;99.90;;;;;;5086542;28;20867;-73
2021/04/08 06:39:04;;;;;;;10.65;3.33;;;0.60;99.90;;;;;;5068650;28;20047;-73
2021/04/08 06:41:37;;;;;;;14.25;4.05;;;0.70;99.90;;;;;;5066885;28;20041;-72
2021/04/08 06:44:05;;;;;;;13.93;3.42;;;0.70;99.90;;;;;;5066724;28;20040;-74
2021/04/08 06:46:36;;;;;;;15.52;3.45;;;0.70;99.90;;;;;;5066343;28;20108;-74
2021/04/08 06:49:41;;;;;;;11.18;3.75;;;0.80;99.90;;;;;;5066771;28;20040;-75
2021/04/08 06:52:08;;;;;;;10.32;4.22;;;0.90;99.90;;;;;;5069648;28;20028;-72
2021/04/08 06:54:34;;;;;;;13.57;3.80;;;1.00;99.90;;;;;;5073348;28;20157;-76
2021/04/08 06:57:01;;;;;;;8.18;3.58;;;0.90;99.90;;;;;;5070646;28;20075;-74
2021/04/08 06:59:26;;;;;;;15.60;4.10;;;1.00;99.90;;;;;;5070450;28;20600;-74
2021/04/08 07:01:53;;;;;;;22.80;4.40;;;1.10;99.90;;;;;;5070213;28;20595;-73
2021/04/08 07:04:20;;;;;;;9.30;3.28;;;1.20;99.90;;;;;;5072935;28;20051;-74
2021/04/08 07:06:46;;;;;;;11.20;3.25;;;1.30;99.90;;;;;;5070963;28;20036;-73
2021/04/08 07:09:12;;;;;;;10.63;3.00;;;1.40;99.90;;;;;;5070998;28;20035;-74
2021/04/08 07:11:40;;;;;;;8.18;3.67;;;1.40;99.90;;;;;;5070727;28;20032;-75
2021/04/08 07:14:09;;;;;;;15.68;3.42;;;1.40;99.90;;;;;;5070367;28;20464;-75
2021/04/08 07:16:35;;;;;;;19.00;3.83;;;1.40;99.90;;;;;;5069792;28;20067;-76
2021/04/08 07:19:03;;;;;;;18.55;3.78;;;1.40;99.90;;;;;;5070910;28;20851;-71
2021/04/08 07:21:35;;;;;;;11.52;3.90;;;1.50;99.90;;;;;;5087865;28;20042;-69
2021/04/08 07:24:23;;;;;;;14.23;3.20;;;1.60;99.90;;;;;;5072656;28;20071;-72
2021/04/08 07:27:02;;;;;;;13.38;3.80;;;1.70;99.90;;;;;;5068557;28;20541;-73
2021/04/08 07:29:40;;;;;;;14.27;4.38;;;1.80;99.90;;;;;;5073669;28;20132;-73
2021/04/08 07:32:20;;;;;;;14.82;4.38;;;1.90;99.90;;;;;;5073132;28;20040;-72
2021/04/08 07:34:56;;;;;;;19.33;4.35;;;2.00;99.90;;;;;;5092084;28;20047;-76
2021/04/08 07:37:35;;;;;;;23.98;4.40;;;2.20;99.90;;;;;;5066360;28;20044;-72
2021/04/08 07:40:13;;;;;;;15.40;3.85;;;2.30;99.90;;;;;;5073395;28;20059;-73
2021/04/08 07:42:39;;;;;;;11.25;3.80;;;2.30;99.90;;;;;;5067317;28;20169;-74
2021/04/08 07:45:08;;;;;;;16.80;4.68;;;2.20;99.90;;;;;;5072423;28;20119;-76
2021/04/08 07:47:40;;;;;;;17.55;3.72;;;2.30;99.90;;;;;;5072512;28;20051;-74
2021/04/08 07:50:06;;;;;;;15.35;4.20;;;2.60;99.90;;;;;;5090837;28;20044;-73
2021/04/08 07:52:40;;;;;;;22.70;3.75;;;2.50;99.90;;;;;;5072547;28;20032;-71
2021/04/08 07:55:29;;;;;;;9.23;3.70;;;2.70;99.90;;;;;;5087914;28;20032;-71
2021/04/08 07:58:07;;;;;;;15.63;6.65;;;2.80;99.90;;;;;;5086068;28;20115;-75
2021/04/08 08:00:42;;;;;;;11.73;3.85;;;3.60;99.90;;;;;;5052077;28;20501;-71
2021/04/08 08:03:25;;;;;;;7.57;2.88;;;4.20;99.90;;;;;;5052591;28;20072;-74
2021/04/08 08:05:52;;;;;;;12.13;3.60;;;4.20;99.90;;;;;;5052821;28;20040;-71
2021/04/08 08:08:20;;;;;;;14.30;3.42;;;4.30;99.00;;;;;;5052526;28;20039;-72
2021/04/08 08:11:00;;;;;;;12.65;3.30;;;4.50;99.50;;;;;;5052680;28;20033;-73
2021/04/08 08:13:38;;;;;;;20.92;8.20;;;4.80;99.40;;;;;;5068607;28;20123;-70
2021/04/08 08:16:05;;;;;;;15.45;7.35;;;5.30;98.70;;;;;;5072600;28;20048;-74
2021/04/08 08:18:37;;;;;;;10.00;3.75;;;5.40;98.00;;;;;;5090743;28;20082;-71
2021/04/08 08:21:03;;;;;;;8.60;3.20;;;5.50;96.70;;;;;;5072141;28;20040;-71
2021/04/08 08:23:44;;;;;;;7.53;2.88;;;5.60;96.30;;;;;;5075017;28;20068;-73
2021/04/08 08:26:28;;;;;;;10.32;2.70;;;6.10;96.20;;;;;;5063150;28;20037;-71
2021/04/08 08:29:00;;;;;;;8.38;2.88;;;6.40;95.40;;;;;;5052874;28;20029;-73
2021/04/08 08:31:39;;;;;;;8.00;2.22;;;6.70;93.80;;;;;;5067917;28;20032;-76
2021/04/08 08:34:08;;;;;;;7.10;2.75;;;8.10;92.20;;;;;;5087541;28;20043;-71
2021/04/08 08:36:39;;;;;;;11.38;3.17;;;8.60;90.70;;;;;;5079015;28;20043;-73
2021/04/08 08:39:09;;;;;;;37.28;18.88;;;8.30;89.60;;;;;;5070670;28;20477;-73
2021/04/08 08:41:35;;;;;;;19.52;8.52;;;7.70;89.90;;;;;;5059811;28;20091;-73
2021/04/08 08:44:05;;;;;;;11.27;4.13;;;7.30;90.40;;;;;;5076834;28;20094;-73
2021/04/08 08:46:33;;;;;;;7.05;2.47;;;7.00;91.30;;;;;;5112882;28;20035;-75
2021/04/08 08:49:01;;;;;;;10.68;2.53;;;6.80;91.90;;;;;;5081162;28;20039;-71
2021/04/08 08:51:28;;;;;;;13.45;2.60;;;6.40;91.90;;;;;;5085653;28;20037;-72
2021/04/08 08:53:55;;;;;;;9.95;4.20;;;6.40;92.60;;;;;;5072249;28;20066;-71
2021/04/08 08:56:25;;;;;;;14.60;5.60;;;6.50;92.50;;;;;;5068967;28;20090;-75
2021/04/08 08:58:55;;;;;;;10.32;2.35;;;6.70;91.60;;;;;;5074289;28;20039;-71
2021/04/08 09:01:22;;;;;;;12.70;2.95;;;6.50;91.40;;;;;;5071410;28;20039;-73
2021/04/08 09:03:51;;;;;;;9.60;1.85;;;6.30;91.00;;;;;;5073938;28;20033;-72
2021/04/08 09:06:22;;;;;;;9.88;2.10;;;6.30;91.50;;;;;;5092267;28;20507;-75
2021/04/08 09:08:56;;;;;;;8.90;2.10;;;6.10;91.70;;;;;;5091179;28;20058;-73
2021/04/08 09:11:25;;;;;;;10.35;2.50;;;5.80;91.90;;;;;;5091517;28;20047;-72
2021/04/08 09:13:54;;;;;;;10.93;2.15;;;5.70;92.70;;;;;;5057365;28;20040;-75
2021/04/08 09:16:20;;;;;;;10.23;2.47;;;5.60;92.70;;;;;;5050556;28;20071;-71
2021/04/08 09:19:11;;;;;;;;;;;5.20;92.60;;;;;;5051779;28;20041;-71
2021/04/08 09:21:47;;;;;;;11.95;2.88;;;5.00;94.00;;;;;;5050573;28;19916;-72
2021/04/08 09:24:18;;;;;;;;;;;4.30;94.40;;;;;;5067658;28;20599;-71
2021/04/08 09:26:53;;;;;;;12.10;2.67;;;4.20;96.20;;;;;;5057157;28;19924;-74
2021/04/08 09:29:34;;;;;;;6.22;2.40;;;4.40;95.70;;;;;;5052888;28;20119;-72
2021/04/08 09:32:32;;;;;;;5.85;2.40;;;4.60;95.80;;;;;;5070444;28;20028;-71
2021/04/08 09:35:07;;;;;;;7.30;2.10;;;4.90;95.80;;;;;;5051385;28;20125;-72
2021/04/08 09:37:50;;;;;;;10.02;3.40;;;4.90;95.90;;;;;;5051629;28;20040;-71
2021/04/08 09:40:28;;;;;;;6.35;2.47;;;4.90;95.30;;;;;;5050700;28;20036;-72
2021/04/08 09:43:06;;;;;;;17.35;6.28;;;4.90;95.50;;;;;;5050632;28;20036;-74
2021/04/08 09:45:34;;;;;;;13.60;3.83;;;5.00;96.20;;;;;;5067985;28;20040;-73
2021/04/08 09:48:14;;;;;;;7.22;2.60;;;4.80;94.70;;;;;;5066206;28;20044;-74
2021/04/08 09:50:54;;;;;;;9.55;3.22;;;4.80;95.50;;;;;;5070025;28;20036;-72
2021/04/08 09:53:26;;;;;;;7.97;3.10;;;5.00;95.70;;;;;;5065009;28;20590;-73
2021/04/08 09:56:01;;;;;;;7.45;2.72;;;5.40;94.80;;;;;;5067052;28;20036;-71
2021/04/08 09:58:32;;;;;;;9.25;3.17;;;5.60;94.30;;;;;;5069995;28;20036;-75
2021/04/08 10:01:07;;;;;;;5.57;2.53;;;5.80;93.30;;;;;;5066857;28;20499;-76
2021/04/08 10:03:36;;;;;;;9.02;3.00;;;5.90;92.80;;;;;;5050204;28;20044;-75
2021/04/08 10:06:23;;;;;;;7.50;2.30;;;5.40;93.60;;;;;;5083825;28;20044;-72
2021/04/08 10:08:51;;;;;;;6.95;2.92;;;5.20;92.90;;;;;;5050654;28;20043;-72
2021/04/08 10:11:31;;;;;;;13.15;2.47;;;5.00;93.80;;;;;;5049884;28;20040;-75
2021/04/08 10:13:57;;;;;;;14.50;2.90;;;4.90;94.30;;;;;;5050546;28;20036;-72
2021/04/08 10:16:23;;;;;;;10.52;2.42;;;4.80;94.70;;;;;;5084543;28;20052;-74
2021/04/08 10:18:57;;;;;;;;;;;4.70;95.00;;;;;;5056247;28;20048;-74
2021/04/08 10:21:23;;;;;;;16.13;3.92;;;4.60;94.90;;;;;;5050669;28;19916;-74
2021/04/08 10:23:51;;;;;;;8.95;3.17;;;4.80;94.80;;;;;;5062241;28;20047;-74
2021/04/08 10:26:20;;;;;;;7.95;2.58;;;5.20;94.20;;;;;;5060289;28;20039;-73
2021/04/08 10:28:50;;;;;;;9.02;2.63;;;5.20;93.20;;;;;;5051586;28;20765;-72
2021/04/08 10:31:27;;;;;;;8.00;2.40;;;5.30;93.10;;;;;;5064178;28;20047;-72
2021/04/08 10:33:55;;;;;;;8.13;2.55;;;5.60;93.00;;;;;;5070971;28;20059;-76
2021/04/08 10:36:29;;;;;;;5.72;2.63;;;5.40;92.40;;;;;;5089309;28;20036;-72
2021/04/08 10:39:07;;;;;;;7.63;3.47;;;5.10;92.80;;;;;;5070498;28;20040;-73
2021/04/08 10:41:33;;;;;;;9.48;3.42;;;4.60;93.40;;;;;;5088174;28;20056;-74
2021/04/08 10:44:22;;;;;;;14.25;6.55;;;4.60;93.80;;;;;;5066663;28;20033;-75
2021/04/08 10:46:48;;;;;;;14.18;5.55;;;4.70;94.40;;;;;;5049483;28;20044;-75
2021/04/08 10:49:27;;;;;;;8.45;3.38;;;4.50;94.00;;;;;;5051209;28;20040;-72
2021/04/08 10:51:54;;;;;;;17.70;3.88;;;4.70;94.50;;;;;;5049744;28;20076;-74
2021/04/08 10:54:25;;;;;;;8.68;3.40;;;4.90;93.30;;;;;;5066420;28;20044;-74
2021/04/08 10:56:51;;;;;;;9.27;3.55;;;5.30;93.30;;;;;;5055190;28;20124;-75
2021/04/08 10:59:22;;;;;;;12.88;3.88;;;5.30;93.10;;;;;;5049497;28;20080;-77
2021/04/08 11:01:49;;;;;;;10.25;3.88;;;5.10;92.30;;;;;;5048629;28;20040;-72
2021/04/08 11:04:16;;;;;;;10.75;3.28;;;4.90;92.60;;;;;;5055299;28;20090;-73
2021/04/08 11:06:42;;;;;;;14.57;4.07;;;4.90;92.50;;;;;;5066467;28;20044;-73
2021/04/08 11:09:08;;;;;;;18.05;6.72;;;5.00;91.80;;;;;;5066103;28;20115;-72
2021/04/08 11:11:34;;;;;;;;;;;5.10;92.10;;;;;;5069011;28;20147;-72
2021/04/08 11:14:00;;;;;;;9.40;3.75;;;5.00;92.40;;;;;;5070245;28;19916;-75
2021/04/08 11:16:28;;;;;;;11.18;4.45;;;5.20;92.00;;;;;;5069292;28;20489;-72
2021/04/08 11:18:57;;;;;;;10.02;5.80;;;5.60;91.20;;;;;;5070398;28;20047;-73
2021/04/08 11:21:27;;;;;;;7.63;3.92;;;5.80;91.00;;;;;;5069762;28;20090;-71
2021/04/08 11:23:55;;;;;;;10.48;3.53;;;5.90;89.70;;;;;;5072574;28;20044;-71
2021/04/08 11:26:21;;;;;;;11.07;4.57;;;5.70;89.00;;;;;;5059028;28;20741;-75
2021/04/08 11:28:53;;;;;;;14.65;4.25;;;5.50;90.10;;;;;;5050424;28;20100;-74
2021/04/08 11:31:21;;;;;;;11.20;5.00;;;5.50;90.50;;;;;;5080838;28;20042;-71
2021/04/08 11:33:57;;;;;;;10.60;4.60;;;5.40;90.40;;;;;;5089632;28;20062;-72
2021/04/08 11:36:23;;;;;;;11.18;4.30;;;5.20;90.60;;;;;;5072596;28;20044;-75
2021/04/08 11:38:50;;;;;;;11.95;5.10;;;5.10;90.90;;;;;;5064405;28;20039;-74
2021/04/08 11:41:16;;;;;;;8.15;4.28;;;4.80;91.20;;;;;;5071239;28;20067;-75
2021/04/08 11:43:42;;;;;;;;;;;4.80;91.70;;;;;;5108515;28;20083;-74
2021/04/08 11:46:26;;;;;;;10.13;4.22;;;5.10;91.60;;;;;;5089973;28;19923;-76
2021/04/08 11:48:52;;;;;;;12.73;4.93;;;5.20;91.50;;;;;;5089897;28;20040;-74
2021/04/08 11:51:31;;;;;;;12.90;3.85;;;5.00;91.00;;;;;;5069711;28;20043;-73
2021/04/08 11:54:12;;;;;;;10.55;4.88;;;4.70;91.20;;;;;;5070470;28;20031;-76
2021/04/08 11:56:40;;;;;;;7.63;4.38;;;4.70;91.90;;;;;;5087611;28;20511;-75
2021/04/08 11:59:16;;;;;;;8.48;4.05;;;5.10;91.50;;;;;;5068206;28;20036;-75
2021/04/08 12:01:47;;;;;;;6.93;4.20;;;5.50;91.10;;;;;;5066437;28;20036;-72
2021/04/08 12:04:23;;;;;;;9.73;4.60;;;5.50;90.20;;;;;;5069505;28;20290;-75
2021/04/08 12:06:57;;;;;;;10.82;4.47;;;5.60;90.40;;;;;;5065273;28;20043;-71
2021/04/08 12:09:34;;;;;;;9.68;4.70;;;5.50;89.30;;;;;;5054286;28;20132;-71
2021/04/08 12:12:01;;;;;;;11.75;4.95;;;5.50;90.50;;;;;;5087576;28;20125;-75
2021/04/08 12:14:27;;;;;;;13.40;4.97;;;5.30;90.40;;;;;;5073707;28;20054;-70
2021/04/08 12:17:00;;;;;;;;;;;5.40;90.30;;;;;;5073235;28;20036;-70
2021/04/08 12:19:27;;;;;;;15.18;5.18;;;5.10;90.00;;;;;;5107807;28;20025;-73
2021/04/08 12:22:08;;;;;;;9.68;4.75;;;5.70;90.40;;;;;;5073554;28;20131;-71
2021/04/08 12:24:35;;;;;;;15.75;4.60;;;5.70;88.50;;;;;;5086444;28;20037;-71
2021/04/08 12:27:01;;;;;;;11.82;5.20;;;5.90;87.80;;;;;;5073919;28;20040;-75
2021/04/08 12:29:32;;;;;;;12.60;4.80;;;5.90;88.90;;;;;;5074355;28;20040;-71
2021/04/08 12:31:58;;;;;;;;;;;5.70;86.90;;;;;;5072775;28;20043;-72
2021/04/08 12:34:24;;;;;;;9.95;4.90;;;5.60;88.00;;;;;;5072683;28;19922;-73
2021/04/08 12:36:50;;;;;;;11.90;5.30;;;5.80;88.00;;;;;;5072413;28;20052;-74
2021/04/08 12:39:16;;;;;;;;;;;5.70;87.90;;;;;;5072894;28;20032;-71
2021/04/08 12:41:43;;;;;;;8.88;5.10;;;5.50;89.10;;;;;;5072149;28;19926;-73
2021/04/08 12:44:08;;;;;;;11.85;5.47;;;5.30;88.50;;;;;;5072830;28;20046;-72
2021/04/08 12:46:34;;;;;;;;;;;5.20;89.40;;;;;;5072387;28;20641;-74
2021/04/08 12:49:00;;;;;;;9.32;4.80;;;5.00;90.10;;;;;;5072954;28;19954;-73
2021/04/08 12:51:27;;;;;;;10.88;5.65;;;5.10;90.90;;;;;;5071957;28;20058;-72
2021/04/08 12:53:54;;;;;;;13.52;7.07;;;4.80;91.00;;;;;;5075223;28;20040;-71
2021/04/08 12:56:23;;;;;;;16.40;9.18;;;4.70;92.10;;;;;;5078241;28;20089;-71
2021/04/08 12:58:49;;;;;;;13.10;5.80;;;4.40;91.40;;;;;;5092983;28;20043;-73
2021/04/08 13:01:14;;;;;;;;;;;4.30;92.00;;;;;;5092182;28;20059;-73